createdAt,value
2018-08-18T00:00:00.910Z,0.00
2018-08-18T00:01:00.598Z,0.00
2018-08-18T00:02:00.608Z,0.00
2018-08-18T00:03:00.601Z,0.00
2018-08-18T00:04:00.749Z,0.00
2018-08-18T00:05:01.012Z,0.00
2018-08-18T00:06:00.644Z,0.00
2018-08-18T00:07:00.661Z,0.00
2018-08-18T00:08:00.673Z,0.00
2018-08-18T00:09:00.808Z,0.00
2018-08-18T00:10:01.018Z,0.00
2018-08-18T00:11:00.830Z,0.00
2018-08-18T00:12:00.839Z,0.00
2018-08-18T00:13:00.728Z,0.00
2018-08-18T00:14:00.728Z,0.00
2018-08-18T00:15:00.995Z,0.00
2018-08-18T00:16:00.885Z,0.00
2018-08-18T00:17:00.902Z,0.00
2018-08-18T00:18:00.773Z,0.00
2018-08-18T00:19:00.922Z,0.00
2018-08-18T00:20:01.057Z,0.00
2018-08-18T00:21:00.823Z,0.00
2018-08-18T00:22:00.868Z,0.00
2018-08-18T00:23:00.847Z,0.00
2018-08-18T00:24:00.850Z,0.00
2018-08-18T00:25:01.017Z,0.00
2018-08-18T00:26:00.876Z,0.00
2018-08-18T00:27:00.893Z,0.00
2018-08-18T00:28:00.911Z,0.00
2018-08-18T00:29:00.945Z,0.00
2018-08-18T00:30:01.068Z,0.00
2018-08-18T00:31:01.063Z,0.00
2018-08-18T00:32:00.940Z,0.00
2018-08-18T00:33:01.084Z,0.00
2018-08-18T00:34:00.991Z,0.00
2018-08-18T00:35:01.239Z,0.00
2018-08-18T00:36:00.991Z,0.00
2018-08-18T00:37:01.128Z,0.00
2018-08-18T00:38:01.011Z,0.00
2018-08-18T00:39:01.026Z,0.00
2018-08-18T00:40:01.367Z,0.00
2018-08-18T00:41:01.049Z,0.00
2018-08-18T00:42:01.067Z,0.00
2018-08-18T00:43:01.071Z,0.00
2018-08-18T00:44:01.081Z,0.00
2018-08-18T00:45:01.354Z,0.00
2018-08-18T00:46:01.116Z,0.00
2018-08-18T00:47:01.117Z,0.00
2018-08-18T00:48:01.134Z,0.00
2018-08-18T00:49:01.271Z,0.00
2018-08-18T00:50:01.148Z,0.00
2018-08-18T00:51:01.370Z,0.00
2018-08-18T00:52:01.168Z,0.00
2018-08-18T00:53:01.185Z,0.00
2018-08-18T00:54:01.200Z,0.00
2018-08-18T00:55:01.227Z,0.00
2018-08-18T00:56:01.467Z,0.00
2018-08-18T00:57:01.356Z,0.00
2018-08-18T00:58:01.254Z,0.00
2018-08-18T00:59:01.281Z,0.00
2018-08-18T01:00:03.847Z,0.00
2018-08-18T01:01:01.279Z,0.00
2018-08-18T01:02:01.479Z,0.00
2018-08-18T01:03:01.309Z,0.00
2018-08-18T01:04:01.317Z,0.00
2018-08-18T01:05:01.455Z,0.00
2018-08-18T01:06:01.465Z,0.00
2018-08-18T01:07:01.505Z,0.00
2018-08-18T01:08:01.353Z,0.00
2018-08-18T01:09:01.378Z,0.00
2018-08-18T01:10:01.394Z,0.00
2018-08-18T01:11:01.626Z,0.00
2018-08-18T01:12:01.554Z,0.00
2018-08-18T01:13:01.525Z,0.00
2018-08-18T01:14:01.588Z,0.00
2018-08-18T01:15:01.599Z,0.00
2018-08-18T01:16:01.710Z,0.00
2018-08-18T01:17:01.589Z,0.00
2018-08-18T01:18:01.483Z,0.00
2018-08-18T01:19:01.490Z,0.00
2018-08-18T01:20:01.534Z,0.00
2018-08-18T01:21:01.712Z,0.00
2018-08-18T01:22:01.534Z,0.00
2018-08-18T01:23:01.530Z,0.00
2018-08-18T01:24:01.548Z,0.00
2018-08-18T01:25:01.558Z,0.00
2018-08-18T01:26:01.874Z,0.00
2018-08-18T01:27:01.720Z,0.00
2018-08-18T01:28:01.716Z,0.00
2018-08-18T01:29:01.619Z,0.00
2018-08-18T01:30:01.750Z,0.00
2018-08-18T01:31:02.004Z,0.00
2018-08-18T01:32:01.646Z,0.00
2018-08-18T01:33:01.654Z,0.00
2018-08-18T01:34:01.659Z,0.00
2018-08-18T01:35:01.803Z,0.00
2018-08-18T01:36:01.987Z,0.00
2018-08-18T01:37:01.709Z,0.00
2018-08-18T01:38:01.713Z,0.00
2018-08-18T01:39:01.745Z,0.00
2018-08-18T01:40:01.734Z,0.00
2018-08-18T01:41:02.013Z,0.00
2018-08-18T01:42:01.769Z,0.00
2018-08-18T01:43:01.897Z,0.00
2018-08-18T01:44:01.774Z,0.00
2018-08-18T01:45:01.801Z,0.00
2018-08-18T01:46:02.046Z,0.00
2018-08-18T01:47:01.944Z,0.00
2018-08-18T01:48:01.833Z,0.00
2018-08-18T01:49:01.965Z,0.00
2018-08-18T01:50:01.854Z,0.00
2018-08-18T01:51:02.127Z,0.00
2018-08-18T01:52:01.879Z,0.00
2018-08-18T01:53:02.010Z,0.00
2018-08-18T01:54:02.017Z,0.00
2018-08-18T01:55:01.921Z,0.00
2018-08-18T01:56:02.242Z,0.00
2018-08-18T01:57:02.059Z,0.00
2018-08-18T01:58:02.065Z,0.00
2018-08-18T01:59:01.954Z,0.00
2018-08-18T02:00:01.960Z,0.00
2018-08-18T02:01:02.227Z,0.00
2018-08-18T02:02:01.992Z,0.00
2018-08-18T02:03:02.122Z,0.00
2018-08-18T02:04:02.009Z,0.00
2018-08-18T02:05:02.030Z,0.00
2018-08-18T02:06:02.285Z,0.00
2018-08-18T02:07:02.045Z,0.00
2018-08-18T02:08:02.047Z,0.00
2018-08-18T02:09:02.197Z,0.00
2018-08-18T02:10:02.211Z,0.00
2018-08-18T02:11:02.371Z,0.00
2018-08-18T02:12:02.114Z,0.00
2018-08-18T02:13:02.115Z,0.00
2018-08-18T02:14:02.122Z,0.00
2018-08-18T02:15:02.147Z,0.00
2018-08-18T02:16:02.531Z,0.00
2018-08-18T02:17:02.166Z,0.00
2018-08-18T02:18:02.175Z,0.00
2018-08-18T02:19:02.191Z,0.00
2018-08-18T02:20:02.398Z,0.00
2018-08-18T02:21:02.453Z,0.00
2018-08-18T02:22:02.224Z,0.00
2018-08-18T02:23:02.236Z,0.00
2018-08-18T02:24:02.373Z,0.00
2018-08-18T02:25:02.256Z,0.00
2018-08-18T02:26:02.302Z,0.00
2018-08-18T02:27:02.476Z,0.00
2018-08-18T02:28:02.411Z,0.00
2018-08-18T02:29:02.302Z,0.00
2018-08-18T02:30:02.436Z,0.00
2018-08-18T02:31:02.448Z,0.00
2018-08-18T02:32:02.585Z,0.00
2018-08-18T02:33:02.351Z,0.00
2018-08-18T02:34:02.357Z,0.00
2018-08-18T02:35:02.364Z,0.00
2018-08-18T02:36:02.386Z,0.00
2018-08-18T02:37:02.397Z,0.00
2018-08-18T02:38:02.557Z,0.00
2018-08-18T02:39:02.412Z,0.00
2018-08-18T02:40:02.619Z,0.00
2018-08-18T02:41:02.445Z,0.00
2018-08-18T02:42:02.447Z,0.00
2018-08-18T02:43:02.583Z,0.00
2018-08-18T02:44:02.779Z,0.00
2018-08-18T02:45:02.606Z,0.00
2018-08-18T02:46:02.502Z,0.00
2018-08-18T02:47:02.631Z,0.00
2018-08-18T02:48:02.517Z,0.00
2018-08-18T02:49:02.528Z,0.00
2018-08-18T02:50:02.788Z,0.00
2018-08-18T02:51:02.544Z,0.00
2018-08-18T02:52:02.563Z,0.00
2018-08-18T02:53:02.588Z,0.00
2018-08-18T02:54:02.601Z,0.00
2018-08-18T02:55:02.739Z,0.00
2018-08-18T02:56:02.612Z,0.00
2018-08-18T02:57:02.622Z,0.00
2018-08-18T02:58:02.627Z,0.00
2018-08-18T02:59:02.655Z,0.00
2018-08-18T03:00:03.009Z,0.00
2018-08-18T03:01:02.665Z,0.00
2018-08-18T03:02:02.687Z,0.00
2018-08-18T03:03:02.811Z,0.00
2018-08-18T03:04:02.831Z,0.00
2018-08-18T03:05:03.086Z,0.00
2018-08-18T03:06:02.849Z,0.00
2018-08-18T03:07:02.749Z,0.00
2018-08-18T03:08:02.810Z,0.00
2018-08-18T03:09:02.760Z,0.00
2018-08-18T03:10:03.021Z,0.00
2018-08-18T03:11:02.907Z,0.00
2018-08-18T03:12:02.798Z,0.00
2018-08-18T03:13:02.851Z,0.00
2018-08-18T03:14:02.832Z,0.00
2018-08-18T03:15:03.073Z,0.00
2018-08-18T03:16:02.964Z,0.00
2018-08-18T03:17:02.975Z,0.00
2018-08-18T03:18:02.868Z,0.00
2018-08-18T03:19:02.871Z,0.00
2018-08-18T03:20:03.263Z,0.00
2018-08-18T03:21:02.892Z,0.00
2018-08-18T03:22:02.922Z,0.00
2018-08-18T03:23:03.039Z,0.00
2018-08-18T03:24:02.918Z,0.00
2018-08-18T03:25:03.198Z,0.00
2018-08-18T03:26:03.077Z,0.00
2018-08-18T03:27:02.974Z,0.00
2018-08-18T03:28:03.103Z,0.00
2018-08-18T03:29:03.197Z,0.00
2018-08-18T03:30:03.244Z,0.00
2018-08-18T03:31:03.048Z,0.00
2018-08-18T03:32:03.022Z,0.00
2018-08-18T03:33:03.153Z,0.00
2018-08-18T03:34:03.165Z,0.00
2018-08-18T03:35:03.305Z,0.00
2018-08-18T03:36:03.195Z,0.00
2018-08-18T03:37:03.089Z,0.00
2018-08-18T03:38:03.219Z,0.00
2018-08-18T03:39:03.110Z,0.00
2018-08-18T03:40:03.368Z,0.00
2018-08-18T03:41:03.252Z,0.00
2018-08-18T03:42:03.259Z,0.00
2018-08-18T03:43:03.270Z,0.00
2018-08-18T03:44:03.286Z,0.00
2018-08-18T03:45:03.181Z,0.00
2018-08-18T03:46:03.427Z,0.00
2018-08-18T03:47:03.322Z,0.00
2018-08-18T03:48:03.204Z,0.00
2018-08-18T03:49:03.341Z,0.00
2018-08-18T03:50:03.227Z,0.00
2018-08-18T03:51:03.237Z,0.00
2018-08-18T03:52:03.556Z,0.00
2018-08-18T03:53:03.385Z,0.00
2018-08-18T03:54:03.278Z,0.00
2018-08-18T03:55:03.294Z,0.00
2018-08-18T03:56:03.296Z,0.00
2018-08-18T03:57:03.432Z,0.00
2018-08-18T03:58:03.556Z,0.00
2018-08-18T03:59:03.455Z,0.00
2018-08-18T04:00:03.342Z,0.00
2018-08-18T04:01:03.475Z,0.00
2018-08-18T04:02:03.584Z,0.00
2018-08-18T04:03:03.375Z,0.00
2018-08-18T04:04:03.767Z,0.00
2018-08-18T04:05:03.437Z,0.00
2018-08-18T04:06:03.415Z,0.00
2018-08-18T04:07:03.437Z,0.00
2018-08-18T04:08:03.556Z,0.00
2018-08-18T04:09:03.792Z,0.00
2018-08-18T04:10:03.586Z,0.00
2018-08-18T04:11:03.456Z,0.00
2018-08-18T04:12:03.483Z,0.00
2018-08-18T04:13:03.504Z,0.00
2018-08-18T04:14:03.703Z,0.00
2018-08-18T04:15:03.516Z,0.00
2018-08-18T04:16:03.526Z,0.00
2018-08-18T04:17:03.553Z,0.00
2018-08-18T04:18:03.552Z,0.00
2018-08-18T04:19:03.821Z,0.00
2018-08-18T04:20:03.582Z,0.00
2018-08-18T04:21:03.582Z,0.00
2018-08-18T04:22:03.724Z,0.00
2018-08-18T04:23:03.602Z,0.00
2018-08-18T04:24:03.997Z,0.00
2018-08-18T04:25:03.788Z,0.00
2018-08-18T04:26:03.648Z,0.00
2018-08-18T04:27:03.649Z,0.00
2018-08-18T04:28:03.672Z,0.00
2018-08-18T04:29:03.936Z,0.00
2018-08-18T04:30:03.692Z,0.00
2018-08-18T04:31:03.704Z,0.00
2018-08-18T04:32:03.716Z,0.00
2018-08-18T04:33:03.851Z,0.00
2018-08-18T04:34:04.010Z,0.00
2018-08-18T04:35:03.868Z,0.00
2018-08-18T04:36:03.761Z,0.00
2018-08-18T04:37:03.770Z,0.00
2018-08-18T04:38:03.918Z,0.00
2018-08-18T04:39:03.992Z,0.00
2018-08-18T04:40:03.797Z,0.00
2018-08-18T04:41:03.812Z,0.00
2018-08-18T04:42:03.957Z,0.00
2018-08-18T04:43:03.845Z,0.00
2018-08-18T04:44:04.054Z,0.00
2018-08-18T04:45:03.865Z,0.00
2018-08-18T04:46:04.003Z,0.00
2018-08-18T04:47:04.011Z,0.00
2018-08-18T04:48:03.907Z,0.00
2018-08-18T04:49:04.105Z,0.00
2018-08-18T04:50:03.934Z,0.00
2018-08-18T04:51:03.935Z,0.00
2018-08-18T04:52:03.950Z,0.00
2018-08-18T04:53:03.968Z,0.00
2018-08-18T04:54:04.225Z,0.00
2018-08-18T04:55:03.981Z,0.00
2018-08-18T04:56:03.990Z,0.00
2018-08-18T04:57:04.078Z,0.00
2018-08-18T04:58:04.146Z,0.00
2018-08-18T04:59:04.154Z,0.00
2018-08-18T05:00:04.233Z,0.00
2018-08-18T05:01:04.054Z,0.00
2018-08-18T05:02:04.191Z,0.00
2018-08-18T05:03:04.082Z,0.00
2018-08-18T05:04:04.208Z,0.00
2018-08-18T05:05:04.308Z,0.00
2018-08-18T05:06:04.234Z,0.00
2018-08-18T05:07:04.242Z,0.00
2018-08-18T05:08:04.127Z,0.00
2018-08-18T05:09:04.148Z,0.00
2018-08-18T05:10:04.165Z,0.00
2018-08-18T05:11:04.422Z,0.00
2018-08-18T05:12:04.177Z,0.00
2018-08-18T05:13:04.199Z,0.00
2018-08-18T05:14:04.205Z,0.00
2018-08-18T05:15:04.224Z,0.00
2018-08-18T05:16:04.351Z,0.00
2018-08-18T05:17:04.434Z,0.00
2018-08-18T05:18:04.375Z,0.00
2018-08-18T05:19:04.315Z,0.00
2018-08-18T05:20:04.310Z,0.00
2018-08-18T05:21:04.410Z,0.00
2018-08-18T05:22:04.554Z,0.00
2018-08-18T05:23:04.403Z,0.00
2018-08-18T05:24:04.328Z,0.00
2018-08-18T05:25:04.454Z,0.00
2018-08-18T05:26:04.349Z,0.00
2018-08-18T05:27:04.366Z,0.00
2018-08-18T05:28:04.619Z,0.00
2018-08-18T05:29:04.378Z,0.00
2018-08-18T05:30:04.377Z,0.00
2018-08-18T05:31:04.401Z,0.00
2018-08-18T05:32:04.545Z,0.00
2018-08-18T05:33:04.713Z,0.00
2018-08-18T05:34:04.459Z,0.00
2018-08-18T05:35:04.460Z,0.00
2018-08-18T05:36:04.467Z,0.00
2018-08-18T05:37:04.469Z,0.00
2018-08-18T05:38:04.690Z,0.00
2018-08-18T05:39:04.616Z,0.00
2018-08-18T05:40:04.515Z,0.00
2018-08-18T05:41:04.517Z,0.00
2018-08-18T05:42:04.652Z,0.00
2018-08-18T05:43:04.915Z,0.00
2018-08-18T05:44:04.558Z,0.00
2018-08-18T05:45:04.563Z,0.00
2018-08-18T05:46:04.573Z,0.00
2018-08-18T05:47:04.589Z,0.00
2018-08-18T05:48:04.807Z,0.00
2018-08-18T05:49:04.612Z,0.00
2018-08-18T05:50:04.745Z,0.00
2018-08-18T05:51:04.767Z,0.00
2018-08-18T05:52:04.769Z,0.00
2018-08-18T05:53:04.854Z,0.00
2018-08-18T05:54:04.661Z,0.00
2018-08-18T05:55:04.682Z,0.00
2018-08-18T05:56:04.702Z,0.00
2018-08-18T05:57:04.700Z,0.00
2018-08-18T05:58:04.977Z,0.00
2018-08-18T05:59:04.768Z,0.00
2018-08-18T06:00:04.741Z,0.00
2018-08-18T06:01:04.788Z,0.00
2018-08-18T06:02:04.773Z,0.00
2018-08-18T06:03:05.133Z,0.00
2018-08-18T06:04:04.790Z,0.00
2018-08-18T06:05:04.926Z,0.00
2018-08-18T06:06:04.813Z,0.00
2018-08-18T06:07:04.946Z,0.00
2018-08-18T06:08:05.160Z,0.00
2018-08-18T06:09:04.835Z,0.00
2018-08-18T06:10:04.859Z,0.00
2018-08-18T06:11:04.996Z,0.00
2018-08-18T06:12:04.887Z,0.00
2018-08-18T06:13:05.141Z,0.00
2018-08-18T06:14:05.028Z,0.00
2018-08-18T06:15:04.912Z,0.00
2018-08-18T06:16:04.914Z,0.00
2018-08-18T06:17:04.931Z,0.00
2018-08-18T06:18:04.944Z,0.00
2018-08-18T06:19:05.336Z,0.00
2018-08-18T06:20:04.967Z,0.00
2018-08-18T06:21:04.986Z,0.00
2018-08-18T06:22:05.120Z,0.00
2018-08-18T06:23:05.012Z,0.00
2018-08-18T06:24:05.348Z,0.00
2018-08-18T06:25:05.023Z,0.00
2018-08-18T06:26:05.038Z,0.00
2018-08-18T06:27:05.057Z,0.00
2018-08-18T06:28:05.185Z,0.00
2018-08-18T06:29:05.274Z,0.00
2018-08-18T06:30:05.083Z,0.00
2018-08-18T06:31:05.106Z,0.00
2018-08-18T06:32:05.231Z,0.00
2018-08-18T06:33:05.117Z,0.00
2018-08-18T06:34:05.385Z,0.00
2018-08-18T06:35:05.200Z,0.00
2018-08-18T06:36:05.189Z,0.00
2018-08-18T06:37:05.293Z,0.00
2018-08-18T06:38:05.180Z,0.00
2018-08-18T06:39:05.516Z,0.00
2018-08-18T06:40:05.199Z,0.00
2018-08-18T06:41:05.278Z,0.00
2018-08-18T06:42:05.226Z,0.00
2018-08-18T06:43:05.232Z,0.00
2018-08-18T06:44:05.452Z,0.00
2018-08-18T06:45:05.254Z,0.00
2018-08-18T06:46:05.391Z,0.00
2018-08-18T06:47:05.405Z,0.00
2018-08-18T06:48:05.308Z,0.00
2018-08-18T06:49:05.549Z,0.00
2018-08-18T06:50:05.306Z,0.00
2018-08-18T06:51:05.450Z,0.00
2018-08-18T06:52:05.461Z,0.00
2018-08-18T06:53:05.347Z,0.00
2018-08-18T06:54:05.574Z,0.00
2018-08-18T06:55:05.617Z,0.00
2018-08-18T06:56:05.380Z,0.00
2018-08-18T06:57:05.408Z,0.00
2018-08-18T06:58:05.521Z,0.00
2018-08-18T06:59:05.731Z,0.00
2018-08-18T07:00:05.414Z,0.00
2018-08-18T07:01:05.555Z,0.00
2018-08-18T07:02:05.567Z,0.00
2018-08-18T07:03:05.454Z,0.00
2018-08-18T07:04:05.660Z,0.00
2018-08-18T07:05:05.598Z,0.00
2018-08-18T07:06:05.607Z,0.00
2018-08-18T07:07:05.623Z,0.00
2018-08-18T07:08:05.630Z,0.00
2018-08-18T07:09:05.892Z,0.00
2018-08-18T07:10:05.527Z,0.00
2018-08-18T07:11:05.660Z,0.00
2018-08-18T07:12:05.550Z,0.00
2018-08-18T07:13:05.558Z,0.00
2018-08-18T07:14:05.941Z,0.00
2018-08-18T07:15:05.576Z,0.00
2018-08-18T07:16:05.601Z,0.00
2018-08-18T07:17:05.596Z,0.00
2018-08-18T07:18:05.739Z,0.00
2018-08-18T07:19:05.891Z,0.00
2018-08-18T07:20:05.637Z,0.00
2018-08-18T07:21:05.651Z,0.00
2018-08-18T07:22:05.657Z,0.00
2018-08-18T07:23:05.787Z,0.00
2018-08-18T07:24:05.884Z,0.00
2018-08-18T07:25:05.681Z,0.00
2018-08-18T07:26:05.701Z,0.00
2018-08-18T07:27:05.835Z,0.00
2018-08-18T07:28:05.763Z,0.00
2018-08-18T07:29:06.105Z,0.00
2018-08-18T07:30:05.862Z,0.00
2018-08-18T07:31:05.745Z,0.00
2018-08-18T07:32:05.768Z,0.00
2018-08-18T07:33:05.891Z,0.00
2018-08-18T07:34:06.086Z,0.00
2018-08-18T07:35:05.789Z,0.00
2018-08-18T07:36:05.926Z,0.00
2018-08-18T07:37:05.981Z,0.00
2018-08-18T07:38:05.841Z,0.00
2018-08-18T07:39:06.008Z,0.00
2018-08-18T07:40:05.840Z,0.00
2018-08-18T07:41:05.860Z,0.00
2018-08-18T07:42:06.067Z,0.00
2018-08-18T07:43:05.872Z,0.00
2018-08-18T07:44:06.016Z,0.00
2018-08-18T07:45:06.024Z,0.00
2018-08-18T07:46:05.912Z,0.00
2018-08-18T07:47:06.120Z,0.00
2018-08-18T07:48:06.193Z,0.00
2018-08-18T07:49:05.938Z,0.00
2018-08-18T07:50:05.953Z,0.00
2018-08-18T07:51:05.973Z,0.00
2018-08-18T07:52:06.223Z,0.00
2018-08-18T07:53:06.019Z,0.00
2018-08-18T07:54:06.120Z,0.00
2018-08-18T07:55:06.016Z,0.00
2018-08-18T07:56:06.014Z,0.00
2018-08-18T07:57:06.262Z,0.00
2018-08-18T07:58:06.034Z,0.00
2018-08-18T07:59:06.057Z,0.00
2018-08-18T08:00:06.238Z,0.00
2018-08-18T08:01:06.064Z,0.00
2018-08-18T08:02:06.287Z,0.00
2018-08-18T08:03:06.211Z,0.00
2018-08-18T08:04:06.101Z,0.00
2018-08-18T08:05:06.289Z,0.00
2018-08-18T08:06:06.128Z,0.00
2018-08-18T08:07:06.561Z,0.00
2018-08-18T08:08:06.259Z,0.00
2018-08-18T08:09:06.157Z,0.00
2018-08-18T08:10:06.335Z,0.00
2018-08-18T08:11:06.297Z,0.00
2018-08-18T08:12:06.175Z,0.00
2018-08-18T08:13:06.479Z,0.00
2018-08-18T08:14:06.197Z,0.00
2018-08-18T08:15:06.218Z,0.00
2018-08-18T08:16:06.221Z,0.00
2018-08-18T08:17:06.245Z,0.00
2018-08-18T08:18:06.607Z,0.00
2018-08-18T08:19:06.255Z,0.00
2018-08-18T08:20:06.269Z,0.00
2018-08-18T08:21:06.281Z,0.00
2018-08-18T08:22:06.286Z,0.00
2018-08-18T08:23:06.423Z,0.00
2018-08-18T08:24:06.734Z,0.00
2018-08-18T08:25:06.437Z,0.00
2018-08-18T08:26:06.318Z,0.00
2018-08-18T08:27:06.338Z,0.00
2018-08-18T08:28:06.474Z,0.00
2018-08-18T08:29:06.783Z,0.00
2018-08-18T08:30:06.494Z,0.00
2018-08-18T08:31:06.373Z,0.00
2018-08-18T08:32:06.391Z,0.00
2018-08-18T08:33:06.392Z,0.00
2018-08-18T08:34:06.535Z,0.00
2018-08-18T08:35:06.679Z,0.00
2018-08-18T08:36:06.552Z,0.00
2018-08-18T08:37:06.445Z,0.00
2018-08-18T08:38:06.571Z,0.00
2018-08-18T08:39:06.585Z,0.00
2018-08-18T08:40:06.469Z,0.00
2018-08-18T08:41:06.806Z,0.00
2018-08-18T08:42:06.618Z,0.00
2018-08-18T08:43:06.518Z,0.00
2018-08-18T08:44:06.508Z,0.00
2018-08-18T08:45:06.648Z,0.00
2018-08-18T08:46:06.658Z,0.00
2018-08-18T08:47:06.871Z,0.00
2018-08-18T08:48:06.559Z,0.00
2018-08-18T08:49:06.732Z,0.00
2018-08-18T08:50:06.574Z,0.00
2018-08-18T08:51:06.602Z,0.00
2018-08-18T08:52:06.616Z,0.00
2018-08-18T08:53:06.858Z,0.00
2018-08-18T08:54:06.618Z,0.00
2018-08-18T08:55:06.748Z,0.00
2018-08-18T08:56:06.629Z,0.00
2018-08-18T08:57:06.653Z,0.00
2018-08-18T08:58:07.034Z,0.00
2018-08-18T08:59:06.677Z,0.00
2018-08-18T09:00:06.691Z,0.00
2018-08-18T09:01:06.692Z,0.00
2018-08-18T09:02:06.699Z,0.00
2018-08-18T09:03:06.910Z,0.00
2018-08-18T09:04:06.712Z,0.00
2018-08-18T09:05:06.725Z,0.00
2018-08-18T09:06:06.737Z,0.00
2018-08-18T09:07:06.753Z,0.00
2018-08-18T09:08:06.912Z,0.00
2018-08-18T09:09:06.890Z,0.00
2018-08-18T09:10:06.950Z,0.00
2018-08-18T09:11:06.799Z,0.00
2018-08-18T09:12:07.052Z,0.00
2018-08-18T09:13:06.932Z,0.00
2018-08-18T09:14:06.807Z,0.00
2018-08-18T09:15:06.826Z,0.00
2018-08-18T09:16:06.845Z,0.00
2018-08-18T09:17:07.111Z,0.00
2018-08-18T09:18:06.902Z,0.00
2018-08-18T09:19:06.996Z,0.00
2018-08-18T09:20:07.013Z,0.00
2018-08-18T09:21:06.939Z,0.00
2018-08-18T09:22:07.096Z,0.00
2018-08-18T09:23:06.966Z,0.00
2018-08-18T09:24:06.919Z,5.63
2018-08-18T09:25:07.060Z,5.63
2018-08-18T09:26:07.078Z,5.63
2018-08-18T09:27:07.279Z,5.63
2018-08-18T09:28:07.097Z,11.25
2018-08-18T09:29:07.099Z,11.25
2018-08-18T09:30:07.111Z,11.25
2018-08-18T09:31:07.128Z,16.88
2018-08-18T09:32:07.014Z,16.88
2018-08-18T09:33:07.222Z,16.88
2018-08-18T09:34:07.040Z,22.50
2018-08-18T09:35:07.043Z,22.50
2018-08-18T09:36:07.186Z,22.50
2018-08-18T09:37:07.082Z,28.13
2018-08-18T09:38:07.391Z,28.13
2018-08-18T09:39:07.075Z,33.75
2018-08-18T09:40:07.213Z,33.75
2018-08-18T09:41:07.102Z,33.75
2018-08-18T09:42:07.238Z,39.38
2018-08-18T09:43:07.277Z,39.38
2018-08-18T09:44:07.262Z,45.00
2018-08-18T09:45:07.465Z,56.25
2018-08-18T09:46:07.276Z,61.88
2018-08-18T09:47:07.163Z,61.88
2018-08-18T09:48:07.176Z,67.50
2018-08-18T09:49:07.190Z,73.13
2018-08-18T09:50:07.343Z,78.75
2018-08-18T09:51:07.249Z,84.38
2018-08-18T09:52:07.596Z,90.00
2018-08-18T09:53:07.355Z,95.63
2018-08-18T09:54:07.264Z,101.25
2018-08-18T09:55:07.383Z,106.88
2018-08-18T09:56:07.387Z,118.13
2018-08-18T09:57:07.463Z,129.38
2018-08-18T09:58:07.277Z,129.38
2018-08-18T09:59:07.444Z,135.00
2018-08-18T10:00:07.430Z,146.25
2018-08-18T10:01:07.322Z,180.00
2018-08-18T10:02:07.324Z,157.50
2018-08-18T10:03:07.592Z,168.75
2018-08-18T10:04:07.361Z,174.38
2018-08-18T10:05:07.486Z,168.75
2018-08-18T10:06:07.378Z,185.63
2018-08-18T10:07:07.396Z,180.00
2018-08-18T10:08:07.766Z,174.38
2018-08-18T10:09:07.402Z,202.50
2018-08-18T10:10:07.412Z,202.50
2018-08-18T10:11:07.551Z,213.75
2018-08-18T10:12:07.567Z,213.75
2018-08-18T10:13:07.696Z,225.00
2018-08-18T10:14:07.468Z,236.25
2018-08-18T10:15:07.599Z,236.25
2018-08-18T10:16:07.475Z,241.88
2018-08-18T10:17:07.516Z,253.13
2018-08-18T10:18:07.728Z,258.75
2018-08-18T10:19:07.568Z,264.38
2018-08-18T10:20:07.539Z,275.63
2018-08-18T10:21:07.673Z,281.25
2018-08-18T10:22:07.683Z,292.50
2018-08-18T10:23:07.822Z,303.75
2018-08-18T10:24:07.588Z,281.25
2018-08-18T10:25:07.723Z,315.00
2018-08-18T10:26:07.622Z,326.25
2018-08-18T10:27:07.820Z,292.50
2018-08-18T10:28:07.794Z,270.00
2018-08-18T10:29:07.925Z,326.25
2018-08-18T10:30:07.800Z,320.63
2018-08-18T10:31:07.696Z,337.50
2018-08-18T10:32:07.695Z,326.25
2018-08-18T10:33:07.840Z,320.63
2018-08-18T10:34:08.015Z,315.00
2018-08-18T10:35:07.873Z,315.00
2018-08-18T10:36:07.778Z,315.00
2018-08-18T10:37:07.777Z,315.00
2018-08-18T10:38:07.784Z,320.63
2018-08-18T10:39:08.077Z,320.63
2018-08-18T10:40:07.943Z,320.63
2018-08-18T10:41:07.958Z,320.63
2018-08-18T10:42:07.956Z,348.75
2018-08-18T10:43:08.104Z,270.00
2018-08-18T10:44:07.879Z,371.25
2018-08-18T10:45:07.893Z,427.50
2018-08-18T10:46:07.912Z,444.38
2018-08-18T10:47:08.048Z,433.13
2018-08-18T10:48:08.265Z,371.25
2018-08-18T10:49:07.956Z,388.13
2018-08-18T10:50:07.969Z,337.50
2018-08-18T10:51:07.991Z,393.75
2018-08-18T10:52:08.008Z,410.63
2018-08-18T10:53:08.349Z,337.50
2018-08-18T10:54:08.064Z,427.50
2018-08-18T10:55:08.181Z,416.25
2018-08-18T10:56:08.193Z,421.88
2018-08-18T10:57:08.092Z,421.88
2018-08-18T10:58:08.431Z,393.75
2018-08-18T10:59:08.248Z,388.13
2018-08-18T11:00:08.130Z,455.63
2018-08-18T11:01:08.190Z,433.13
2018-08-18T11:02:08.177Z,450.00
2018-08-18T11:03:08.350Z,466.88
2018-08-18T11:04:08.207Z,466.88
2018-08-18T11:05:08.219Z,478.13
2018-08-18T11:06:08.230Z,365.63
2018-08-18T11:07:08.526Z,371.25
2018-08-18T11:08:08.266Z,365.63
2018-08-18T11:09:08.333Z,405.00
2018-08-18T11:10:08.308Z,360.00
2018-08-18T11:11:08.568Z,337.50
2018-08-18T11:12:08.341Z,399.38
2018-08-18T11:13:08.478Z,433.13
2018-08-18T11:14:08.406Z,438.75
2018-08-18T11:15:08.397Z,478.13
2018-08-18T11:16:08.647Z,427.50
2018-08-18T11:17:08.426Z,427.50
2018-08-18T11:18:08.440Z,427.50
2018-08-18T11:19:08.577Z,450.00
2018-08-18T11:20:08.590Z,483.75
2018-08-18T11:21:08.729Z,489.38
2018-08-18T11:22:08.623Z,495.00
2018-08-18T11:23:08.524Z,506.25
2018-08-18T11:24:08.658Z,528.75
2018-08-18T11:25:08.674Z,455.63
2018-08-18T11:26:08.763Z,489.38
2018-08-18T11:27:08.580Z,511.88
2018-08-18T11:28:08.641Z,472.50
2018-08-18T11:29:08.647Z,466.88
2018-08-18T11:30:08.617Z,500.63
2018-08-18T11:31:08.843Z,461.25
2018-08-18T11:32:08.660Z,410.63
2018-08-18T11:33:08.699Z,388.13
2018-08-18T11:34:08.691Z,410.63
2018-08-18T11:35:08.767Z,416.25
2018-08-18T11:36:08.988Z,444.38
2018-08-18T11:37:09.021Z,416.25
2018-08-18T11:38:08.748Z,388.13
2018-08-18T11:39:08.767Z,382.50
2018-08-18T11:40:08.784Z,416.25
2018-08-18T11:41:08.783Z,410.63
2018-08-18T11:42:09.099Z,455.63
2018-08-18T11:43:08.939Z,495.00
2018-08-18T11:44:08.832Z,534.38
2018-08-18T11:45:08.864Z,596.25
2018-08-18T11:46:08.855Z,613.13
2018-08-18T11:47:09.017Z,607.50
2018-08-18T11:48:09.090Z,579.38
2018-08-18T11:49:08.897Z,646.88
2018-08-18T11:50:09.042Z,613.13
2018-08-18T11:51:09.055Z,601.88
2018-08-18T11:52:08.952Z,607.50
2018-08-18T11:53:08.963Z,630.00
2018-08-18T11:54:09.288Z,590.63
2018-08-18T11:55:09.115Z,585.00
2018-08-18T11:56:09.014Z,630.00
2018-08-18T11:57:09.027Z,641.25
2018-08-18T11:58:09.034Z,669.38
2018-08-18T11:59:09.357Z,675.00
2018-08-18T12:00:09.060Z,680.63
2018-08-18T12:01:09.164Z,663.75
2018-08-18T12:02:09.096Z,641.25
2018-08-18T12:03:09.122Z,703.13
2018-08-18T12:04:09.548Z,697.50
2018-08-18T12:05:09.144Z,658.13
2018-08-18T12:06:09.199Z,686.25
2018-08-18T12:07:09.292Z,675.00
2018-08-18T12:08:09.232Z,686.25
2018-08-18T12:09:09.322Z,658.13
2018-08-18T12:10:09.539Z,607.50
2018-08-18T12:11:09.411Z,556.88
2018-08-18T12:12:09.372Z,495.00
2018-08-18T12:13:09.263Z,461.25
2018-08-18T12:14:09.401Z,450.00
2018-08-18T12:15:09.298Z,438.75
2018-08-18T12:16:09.542Z,438.75
2018-08-18T12:17:09.370Z,438.75
2018-08-18T12:18:09.344Z,450.00
2018-08-18T12:19:09.349Z,478.13
2018-08-18T12:20:09.373Z,540.00
2018-08-18T12:21:09.619Z,618.75
2018-08-18T12:22:09.405Z,641.25
2018-08-18T12:23:09.538Z,697.50
2018-08-18T12:24:09.432Z,680.63
2018-08-18T12:25:09.565Z,646.88
2018-08-18T12:26:09.707Z,624.38
2018-08-18T12:27:09.479Z,618.75
2018-08-18T12:28:09.614Z,669.38
2018-08-18T12:29:09.518Z,731.25
2018-08-18T12:30:09.508Z,725.63
2018-08-18T12:31:09.911Z,680.63
2018-08-18T12:32:09.563Z,635.63
2018-08-18T12:33:09.687Z,630.00
2018-08-18T12:34:09.711Z,635.63
2018-08-18T12:35:09.606Z,658.13
2018-08-18T12:36:09.858Z,686.25
2018-08-18T12:37:09.653Z,697.50
2018-08-18T12:38:09.766Z,680.63
2018-08-18T12:39:09.867Z,697.50
2018-08-18T12:40:09.678Z,646.88
2018-08-18T12:41:09.690Z,641.25
2018-08-18T12:42:09.716Z,646.88
2018-08-18T12:43:09.761Z,691.88
2018-08-18T12:44:09.944Z,770.63
2018-08-18T12:45:09.745Z,781.88
2018-08-18T12:46:09.759Z,826.88
2018-08-18T12:47:09.769Z,765.00
2018-08-18T12:48:09.795Z,675.00
2018-08-18T12:49:10.189Z,641.25
2018-08-18T12:50:10.056Z,630.00
2018-08-18T12:51:09.848Z,669.38
2018-08-18T12:52:09.988Z,759.38
2018-08-18T12:53:09.890Z,905.63
2018-08-18T12:54:10.111Z,911.25
2018-08-18T12:55:10.036Z,905.63
2018-08-18T12:56:10.056Z,933.75
2018-08-18T12:57:09.960Z,1029.38
2018-08-18T12:58:10.130Z,995.63
2018-08-18T12:59:09.989Z,950.63
2018-08-18T13:00:10.323Z,1029.38
2018-08-18T13:01:10.136Z,1057.50
2018-08-18T13:02:10.021Z,1001.25
2018-08-18T13:03:10.174Z,961.88
2018-08-18T13:04:10.059Z,877.50